PWSweather.com
Personal Weather Stations
Station Observations
WODONGA
Wodonga, WodongaAU 3690

WodongaWodongaAU 3690

Lat: -36.121, Lon: 146.87

Elevation: 541

Station Type: Weather Station

http://www.wodongaweather.net

High Low Average
Temperature 55.2°F12.9°F 46.2°F7.9°F 50.2°F10.1°F
Dew Point 52.9°F11.6°F 43.2°F6.2°F 48.6°F9.2°F
Winds 9.4 mph NW15.1 mph NW 0.1 mph 0.2 mph 4.3 mph 6.9 mph
Wind Gusts 14.5 mph23.3 mph 0.7 mph1.1 mph 6.5 mph10.5 mph
Humidity 99% 88% 94%
Pressure 29.87 in1011.50 in 29.58 in1001.70 in -
Precipitation 7.14 in181.40 in - -
Hour Temp Dew Point Humidity Winds Wind Gusts Pressure Precip Precip Rate Daily Precip Total
12:00 AM 50.4°F10.2°C 48.1°F8.9°C 92% 4.5 mph NW7.2 kmh NW 10.7 mph17.2 kmh 29.87 in1011.5 mb 0.02 in0.5 mm 0.00 in0.0 mm 0.02 in0.5 mm
12:05 AM 50.2°F10.1°C 48.2°F9.0°C 93% 6.2 mph NW10.0 kmh NW 10.7 mph17.2 kmh 29.87 in1011.5 mb 0.02 in0.5 mm 0.00 in0.0 mm 0.02 in0.5 mm
12:10 AM 50.0°F10.0°C 48.3°F9.1°C 94% 6.8 mph N10.9 kmh N 10.7 mph17.2 kmh 29.86 in1011.2 mb 0.02 in0.5 mm 0.00 in0.0 mm 0.02 in0.5 mm
12:15 AM 49.8°F9.9°C 48.2°F9.0°C 94% 6.9 mph NW11.1 kmh NW 10.7 mph17.2 kmh 29.86 in1011.2 mb 0.02 in0.5 mm 0.00 in0.0 mm 0.02 in0.5 mm
12:20 AM 49.6°F9.8°C 48.0°F8.9°C 94% 6.6 mph NW10.6 kmh NW 10.7 mph17.2 kmh 29.86 in1011.2 mb 0.02 in0.5 mm 0.00 in0.0 mm 0.02 in0.5 mm
12:25 AM 49.8°F9.9°C 48.4°F9.1°C 95% 5.0 mph NNW8.0 kmh NNW 8.3 mph13.4 kmh 29.85 in1010.8 mb 0.02 in0.5 mm 0.00 in0.0 mm 0.02 in0.5 mm
12:30 AM 49.6°F9.8°C 48.3°F9.1°C 95% 3.8 mph NNW6.1 kmh NNW 6.0 mph9.7 kmh 29.85 in1010.8 mb 0.02 in0.5 mm 0.00 in0.0 mm 0.02 in0.5 mm
12:35 AM 49.6°F9.8°C 48.3°F9.1°C 95% 3.2 mph NW5.1 kmh NW 4.5 mph7.2 kmh 29.85 in1010.8 mb 0.02 in0.5 mm 0.00 in0.0 mm 0.02 in0.5 mm
12:40 AM 49.8°F9.9°C 48.4°F9.1°C 95% 3.0 mph NW4.8 kmh NW 4.5 mph7.2 kmh 29.85 in1010.8 mb 0.01 in0.3 mm 0.00 in0.0 mm 0.02 in0.5 mm
12:45 AM 49.8°F9.9°C 48.4°F9.1°C 95% 3.3 mph NW5.3 kmh NW 5.4 mph8.7 kmh 29.85 in1010.8 mb 0.01 in0.3 mm 0.00 in0.0 mm 0.02 in0.5 mm
12:50 AM 49.6°F9.8°C 48.3°F9.1°C 95% 3.9 mph NW6.3 kmh NW 5.4 mph8.7 kmh 29.85 in1010.8 mb 0.01 in0.3 mm 0.00 in0.0 mm 0.02 in0.5 mm
12:55 AM 49.6°F9.8°C 48.3°F9.1°C 95% 3.6 mph NW5.8 kmh NW 5.4 mph8.7 kmh 29.84 in1010.5 mb 0.01 in0.3 mm 0.00 in0.0 mm 0.02 in0.5 mm
01:00 AM 49.6°F9.8°C 48.5°F9.2°C 96% 2.9 mph NW4.7 kmh NW 4.5 mph7.2 kmh 29.83 in1010.2 mb 0.00 in0.0 mm 0.00 in0.0 mm 0.02 in0.5 mm
01:05 AM 49.6°F9.8°C 48.3°F9.1°C 95% 2.2 mph WNW3.5 kmh WNW 4.5 mph7.2 kmh 29.84 in1010.5 mb 0.00 in0.0 mm 0.00 in0.0 mm 0.02 in0.5 mm
01:10 AM 49.8°F9.9°C 48.4°F9.1°C 95% 2.0 mph WNW3.2 kmh WNW 3.1 mph5.0 kmh 29.84 in1010.5 mb 0.00 in0.0 mm 0.00 in0.0 mm 0.02 in0.5 mm
01:15 AM 49.8°F9.9°C 48.4°F9.1°C 95% 2.1 mph WNW3.4 kmh WNW 3.1 mph5.0 kmh 29.84 in1010.5 mb 0.00 in0.0 mm 0.00 in0.0 mm 0.02 in0.5 mm
01:20 AM 49.6°F9.8°C 48.3°F9.1°C 95% 1.9 mph NW3.1 kmh NW 2.2 mph3.5 kmh 29.83 in1010.2 mb 0.00 in0.0 mm 0.00 in0.0 mm 0.02 in0.5 mm
01:25 AM 49.6°F9.8°C 48.5°F9.2°C 96% 1.9 mph NW3.1 kmh NW 2.2 mph3.5 kmh 29.83 in1010.2 mb 0.00 in0.0 mm 0.00 in0.0 mm 0.02 in0.5 mm
01:30 AM 49.5°F9.7°C 48.4°F9.1°C 96% 2.2 mph NW3.5 kmh NW 3.1 mph5.0 kmh 29.83 in1010.2 mb 0.00 in0.0 mm 0.00 in0.0 mm 0.02 in0.5 mm
01:35 AM 49.6°F9.8°C 48.5°F9.2°C 96% 2.3 mph NW3.7 kmh NW 3.1 mph5.0 kmh 29.83 in1010.2 mb 0.00 in0.0 mm 0.00 in0.0 mm 0.02 in0.5 mm
01:40 AM 49.6°F9.8°C 48.5°F9.2°C 96% 2.1 mph NW3.4 kmh NW 3.1 mph5.0 kmh 29.83 in1010.2 mb 0.00 in0.0 mm 0.00 in0.0 mm 0.02 in0.5 mm
01:45 AM 49.5°F9.7°C 48.4°F9.1°C 96% 2.3 mph NW3.7 kmh NW 3.8 mph6.1 kmh 29.82 in1009.8 mb 0.01 in0.3 mm 0.12 in3.0 mm 0.01 in0.3 mm
01:50 AM 49.5°F9.7°C 48.4°F9.1°C 96% 2.4 mph NW3.9 kmh NW 3.8 mph6.1 kmh 29.82 in1009.8 mb 0.01 in0.3 mm 0.00 in0.0 mm 0.01 in0.3 mm
01:55 AM 49.5°F9.7°C 48.4°F9.1°C 96% 3.0 mph NW4.8 kmh NW 5.4 mph8.7 kmh 29.83 in1010.2 mb 0.01 in0.3 mm 0.00 in0.0 mm 0.01 in0.3 mm
02:00 AM 49.1°F9.5°C 48.0°F8.9°C 96% 3.6 mph NNW5.8 kmh NNW 5.4 mph8.7 kmh 29.82 in1009.8 mb 0.01 in0.3 mm 0.00 in0.0 mm 0.01 in0.3 mm
02:05 AM 48.9°F9.4°C 47.8°F8.8°C 96% 3.3 mph NNW5.3 kmh NNW 4.5 mph7.2 kmh 29.82 in1009.8 mb 0.01 in0.3 mm 0.00 in0.0 mm 0.01 in0.3 mm
02:10 AM 48.9°F9.4°C 47.8°F8.8°C 96% 3.3 mph NW5.3 kmh NW 4.5 mph7.2 kmh 29.82 in1009.8 mb 0.01 in0.3 mm 0.00 in0.0 mm 0.01 in0.3 mm
02:15 AM 48.7°F9.3°C 47.7°F8.7°C 96% 3.0 mph NNW4.8 kmh NNW 4.5 mph7.2 kmh 29.82 in1009.8 mb 0.02 in0.5 mm 0.12 in3.0 mm 0.02 in0.5 mm
02:20 AM 48.6°F9.2°C 47.5°F8.6°C 96% 2.6 mph NW4.2 kmh NW 3.8 mph6.1 kmh 29.82 in1009.8 mb 0.02 in0.5 mm 0.00 in0.0 mm 0.02 in0.5 mm
02:25 AM 48.6°F9.2°C 47.8°F8.8°C 97% 2.5 mph NNW4.0 kmh NNW 3.1 mph5.0 kmh 29.82 in1009.8 mb 0.02 in0.5 mm 0.00 in0.0 mm 0.02 in0.5 mm
02:30 AM 48.6°F9.2°C 47.8°F8.8°C 97% 2.2 mph N3.5 kmh N 3.1 mph5.0 kmh 29.81 in1009.5 mb 0.02 in0.5 mm 0.00 in0.0 mm 0.02 in0.5 mm
02:35 AM 48.7°F9.3°C 47.9°F8.8°C 97% 1.4 mph N2.3 kmh N 3.1 mph5.0 kmh 29.80 in1009.1 mb 0.04 in1.0 mm 0.24 in6.1 mm 0.04 in1.0 mm
02:40 AM 48.6°F9.2°C 47.8°F8.8°C 97% 1.2 mph N1.9 kmh N 2.2 mph3.5 kmh 29.81 in1009.5 mb 0.05 in1.3 mm 0.12 in3.0 mm 0.05 in1.3 mm
02:45 AM 48.6°F9.2°C 47.8°F8.8°C 97% 1.7 mph N2.7 kmh N 2.2 mph3.5 kmh 29.81 in1009.5 mb 0.04 in1.0 mm 0.00 in0.0 mm 0.05 in1.3 mm
02:50 AM 48.6°F9.2°C 47.8°F8.8°C 97% 1.5 mph N2.4 kmh N 2.2 mph3.5 kmh 29.82 in1009.8 mb 0.04 in1.0 mm 0.00 in0.0 mm 0.05 in1.3 mm
02:55 AM 48.6°F9.2°C 47.8°F8.8°C 97% 1.4 mph NNW2.3 kmh NNW 2.2 mph3.5 kmh 29.82 in1009.8 mb 0.05 in1.3 mm 0.12 in3.0 mm 0.06 in1.5 mm
03:00 AM 48.6°F9.2°C 47.8°F8.8°C 97% 1.5 mph N2.4 kmh N 2.2 mph3.5 kmh 29.80 in1009.1 mb 0.06 in1.5 mm 0.01 in0.3 mm 0.07 in1.8 mm
03:05 AM 48.7°F9.3°C 47.9°F8.8°C 97% 0.8 mph NNE1.3 kmh NNE 2.2 mph3.5 kmh 29.80 in1009.1 mb 0.06 in1.5 mm 0.00 in0.0 mm 0.07 in1.8 mm
03:10 AM 48.7°F9.3°C 47.9°F8.8°C 97% 0.1 mph SW0.2 kmh SW 0.7 mph1.1 kmh 29.80 in1009.1 mb 0.06 in1.5 mm 0.00 in0.0 mm 0.08 in2.0 mm
03:15 AM 48.7°F9.3°C 47.9°F8.8°C 97% 0.2 mph SE0.3 kmh SE 1.6 mph2.6 kmh 29.80 in1009.1 mb 0.07 in1.8 mm 0.12 in3.0 mm 0.09 in2.3 mm
03:20 AM 48.9°F9.4°C 48.1°F8.9°C 97% 0.4 mph SE0.6 kmh SE 1.6 mph2.6 kmh 29.80 in1009.1 mb 0.08 in2.0 mm 0.12 in3.0 mm 0.11 in2.8 mm
03:25 AM 48.7°F9.3°C 47.9°F8.8°C 97% 0.9 mph SE1.4 kmh SE 2.2 mph3.5 kmh 29.79 in1008.8 mb 0.09 in2.3 mm 0.12 in3.0 mm 0.12 in3.0 mm
03:30 AM 48.7°F9.3°C 47.9°F8.8°C 97% 1.6 mph SE2.6 kmh SE 2.2 mph3.5 kmh 29.78 in1008.5 mb 0.09 in2.3 mm 0.00 in0.0 mm 0.12 in3.0 mm
03:35 AM 48.7°F9.3°C 47.9°F8.8°C 97% 2.1 mph ESE3.4 kmh ESE 3.1 mph5.0 kmh 29.78 in1008.5 mb 0.08 in2.0 mm 0.00 in0.0 mm 0.12 in3.0 mm
03:40 AM 48.7°F9.3°C 47.9°F8.8°C 97% 2.9 mph E4.7 kmh E 5.4 mph8.7 kmh 29.78 in1008.5 mb 0.08 in2.0 mm 0.00 in0.0 mm 0.13 in3.3 mm
03:45 AM 48.7°F9.3°C 47.9°F8.8°C 97% 3.6 mph E5.8 kmh E 5.4 mph8.7 kmh 29.77 in1008.1 mb 0.08 in2.0 mm 0.00 in0.0 mm 0.13 in3.3 mm
03:50 AM 48.6°F9.2°C 47.8°F8.8°C 97% 3.5 mph E5.6 kmh E 5.4 mph8.7 kmh 29.77 in1008.1 mb 0.08 in2.0 mm 0.00 in0.0 mm 0.13 in3.3 mm
03:55 AM 48.4°F9.1°C 47.6°F8.7°C 97% 2.9 mph E4.7 kmh E 3.8 mph6.1 kmh 29.78 in1008.5 mb 0.07 in1.8 mm 0.00 in0.0 mm 0.13 in3.3 mm
04:00 AM 48.6°F9.2°C 48.0°F8.9°C 98% 3.1 mph E5.0 kmh E 3.8 mph6.1 kmh 29.76 in1007.8 mb 0.07 in1.8 mm 0.00 in0.0 mm 0.14 in3.6 mm
04:05 AM 48.6°F9.2°C 48.0°F8.9°C 98% 3.0 mph E4.8 kmh E 3.8 mph6.1 kmh 29.77 in1008.1 mb 0.07 in1.8 mm 0.00 in0.0 mm 0.14 in3.6 mm
04:10 AM 48.6°F9.2°C 48.0°F8.9°C 98% 2.7 mph E4.3 kmh E 3.1 mph5.0 kmh 29.77 in1008.1 mb 0.07 in1.8 mm 0.00 in0.0 mm 0.15 in3.8 mm
04:15 AM 48.6°F9.2°C 48.0°F8.9°C 98% 3.3 mph E5.3 kmh E 4.5 mph7.2 kmh 29.77 in1008.1 mb 0.07 in1.8 mm 0.00 in0.0 mm 0.17 in4.3 mm
04:20 AM 48.7°F9.3°C 48.2°F9.0°C 98% 2.8 mph E4.5 kmh E 4.5 mph7.2 kmh 29.76 in1007.8 mb 0.06 in1.5 mm 0.00 in0.0 mm 0.17 in4.3 mm
04:25 AM 48.6°F9.2°C 48.0°F8.9°C 98% 2.0 mph E3.2 kmh E 2.2 mph3.5 kmh 29.76 in1007.8 mb 0.06 in1.5 mm 0.00 in0.0 mm 0.18 in4.6 mm
04:30 AM 48.6°F9.2°C 48.0°F8.9°C 98% 1.8 mph SE2.9 kmh SE 2.2 mph3.5 kmh 29.76 in1007.8 mb 0.06 in1.5 mm 0.00 in0.0 mm 0.18 in4.6 mm
04:35 AM 48.7°F9.3°C 48.2°F9.0°C 98% 1.7 mph SE2.7 kmh SE 2.2 mph3.5 kmh 29.76 in1007.8 mb 0.06 in1.5 mm 0.00 in0.0 mm 0.18 in4.6 mm
04:40 AM 48.7°F9.3°C 48.2°F9.0°C 98% 1.6 mph SE2.6 kmh SE 2.2 mph3.5 kmh 29.75 in1007.5 mb 0.06 in1.5 mm 0.00 in0.0 mm 0.19 in4.8 mm
04:45 AM 48.7°F9.3°C 48.2°F9.0°C 98% 1.4 mph SE2.3 kmh SE 1.6 mph2.6 kmh 29.75 in1007.5 mb 0.06 in1.5 mm 0.00 in0.0 mm 0.19 in4.8 mm
04:50 AM 48.7°F9.3°C 48.2°F9.0°C 98% 1.5 mph SE2.4 kmh SE 2.2 mph3.5 kmh 29.75 in1007.5 mb 0.07 in1.8 mm 0.12 in3.0 mm 0.20 in5.1 mm
04:55 AM 48.7°F9.3°C 48.2°F9.0°C 98% 1.9 mph SE3.1 kmh SE 2.2 mph3.5 kmh 29.75 in1007.5 mb 0.08 in2.0 mm 0.12 in3.0 mm 0.21 in5.3 mm
05:00 AM 48.7°F9.3°C 48.2°F9.0°C 98% 2.0 mph SE3.2 kmh SE 2.2 mph3.5 kmh 29.74 in1007.1 mb 0.07 in1.8 mm 0.00 in0.0 mm 0.21 in5.3 mm
05:05 AM 48.7°F9.3°C 48.2°F9.0°C 98% 1.6 mph SE2.6 kmh SE 2.2 mph3.5 kmh 29.74 in1007.1 mb 0.08 in2.0 mm 0.12 in3.0 mm 0.22 in5.6 mm
05:10 AM 48.7°F9.3°C 48.2°F9.0°C 98% 1.7 mph SE2.7 kmh SE 2.2 mph3.5 kmh 29.74 in1007.1 mb 0.07 in1.8 mm 0.00 in0.0 mm 0.22 in5.6 mm
05:15 AM 48.7°F9.3°C 48.2°F9.0°C 98% 1.8 mph SE2.9 kmh SE 2.2 mph3.5 kmh 29.74 in1007.1 mb 0.07 in1.8 mm 0.00 in0.0 mm 0.24 in6.1 mm
05:20 AM 48.7°F9.3°C 48.2°F9.0°C 98% 1.9 mph SE3.1 kmh SE 2.2 mph3.5 kmh 29.74 in1007.1 mb 0.08 in2.0 mm 0.12 in3.0 mm 0.25 in6.4 mm
05:25 AM 48.7°F9.3°C 48.2°F9.0°C 98% 2.1 mph ESE3.4 kmh ESE 3.1 mph5.0 kmh 29.73 in1006.8 mb 0.08 in2.0 mm 0.00 in0.0 mm 0.26 in6.6 mm
05:30 AM 48.6°F9.2°C 48.0°F8.9°C 98% 1.9 mph ESE3.1 kmh ESE 3.1 mph5.0 kmh 29.73 in1006.8 mb 0.08 in2.0 mm 0.00 in0.0 mm 0.26 in6.6 mm
05:35 AM 48.7°F9.3°C 48.2°F9.0°C 98% 1.3 mph SE2.1 kmh SE 2.2 mph3.5 kmh 29.74 in1007.1 mb 0.09 in2.3 mm 0.12 in3.0 mm 0.27 in6.9 mm
05:40 AM 48.7°F9.3°C 48.2°F9.0°C 98% 1.1 mph SE1.8 kmh SE 2.2 mph3.5 kmh 29.74 in1007.1 mb 0.08 in2.0 mm 0.00 in0.0 mm 0.27 in6.9 mm
05:45 AM 48.9°F9.4°C 48.4°F9.1°C 98% 1.1 mph SE1.8 kmh SE 2.2 mph3.5 kmh 29.73 in1006.8 mb 0.09 in2.3 mm 0.12 in3.0 mm 0.28 in7.1 mm
05:50 AM 48.9°F9.4°C 48.4°F9.1°C 98% 1.4 mph SE2.3 kmh SE 3.1 mph5.0 kmh 29.73 in1006.8 mb 0.09 in2.3 mm 0.00 in0.0 mm 0.30 in7.6 mm
05:55 AM 48.9°F9.4°C 48.4°F9.1°C 98% 1.6 mph ESE2.6 kmh ESE 3.1 mph5.0 kmh 29.73 in1006.8 mb 0.09 in2.3 mm 0.00 in0.0 mm 0.31 in7.9 mm
06:00 AM 48.9°F9.4°C 48.4°F9.1°C 98% 1.2 mph ESE1.9 kmh ESE 2.2 mph3.5 kmh 29.73 in1006.8 mb 0.09 in2.3 mm 0.00 in0.0 mm 0.31 in7.9 mm
06:05 AM 48.9°F9.4°C 48.7°F9.3°C 99% 1.3 mph SE2.1 kmh SE 2.2 mph3.5 kmh 29.72 in1006.4 mb 0.08 in2.0 mm 0.00 in0.0 mm 0.31 in7.9 mm
06:10 AM 48.9°F9.4°C 48.7°F9.3°C 99% 1.5 mph SE2.4 kmh SE 2.2 mph3.5 kmh 29.72 in1006.4 mb 0.09 in2.3 mm 0.12 in3.0 mm 0.32 in8.1 mm
06:15 AM 48.9°F9.4°C 48.7°F9.3°C 99% 1.6 mph SE2.6 kmh SE 2.2 mph3.5 kmh 29.72 in1006.4 mb 0.08 in2.0 mm 0.00 in0.0 mm 0.32 in8.1 mm
06:20 AM 48.9°F9.4°C 48.7°F9.3°C 99% 2.0 mph ESE3.2 kmh ESE 3.1 mph5.0 kmh 29.71 in1006.1 mb 0.08 in2.0 mm 0.00 in0.0 mm 0.33 in8.4 mm
06:25 AM 48.9°F9.4°C 48.7°F9.3°C 99% 2.6 mph E4.2 kmh E 3.8 mph6.1 kmh 29.71 in1006.1 mb 0.08 in2.0 mm 0.00 in0.0 mm 0.34 in8.6 mm
06:30 AM 48.9°F9.4°C 48.7°F9.3°C 99% 2.5 mph E4.0 kmh E 3.8 mph6.1 kmh 29.71 in1006.1 mb 0.08 in2.0 mm 0.00 in0.0 mm 0.34 in8.6 mm
06:35 AM 49.1°F9.5°C 48.8°F9.3°C 99% 2.3 mph E3.7 kmh E 3.1 mph5.0 kmh 29.71 in1006.1 mb 0.08 in2.0 mm 0.00 in0.0 mm 0.35 in8.9 mm
06:40 AM 48.9°F9.4°C 48.7°F9.3°C 99% 2.6 mph E4.2 kmh E 3.8 mph6.1 kmh 29.70 in1005.8 mb 0.08 in2.0 mm 0.00 in0.0 mm 0.35 in8.9 mm
06:45 AM 48.9°F9.4°C 48.7°F9.3°C 99% 2.8 mph E4.5 kmh E 3.8 mph6.1 kmh 29.70 in1005.8 mb 0.07 in1.8 mm 0.00 in0.0 mm 0.35 in8.9 mm
06:50 AM 48.9°F9.4°C 48.7°F9.3°C 99% 2.7 mph ENE4.3 kmh ENE 3.8 mph6.1 kmh 29.70 in1005.8 mb 0.07 in1.8 mm 0.00 in0.0 mm 0.37 in9.4 mm
06:55 AM 48.9°F9.4°C 48.7°F9.3°C 99% 3.6 mph ENE5.8 kmh ENE 6.0 mph9.7 kmh 29.70 in1005.8 mb 0.06 in1.5 mm 0.00 in0.0 mm 0.37 in9.4 mm
07:00 AM 48.7°F9.3°C 48.5°F9.2°C 99% 4.0 mph E6.4 kmh E 6.0 mph9.7 kmh 29.70 in1005.8 mb 0.06 in1.5 mm 0.00 in0.0 mm 0.37 in9.4 mm
07:05 AM 48.7°F9.3°C 48.5°F9.2°C 99% 3.8 mph E6.1 kmh E 5.4 mph8.7 kmh 29.70 in1005.8 mb 0.07 in1.8 mm 0.12 in3.0 mm 0.38 in9.7 mm
07:10 AM 48.7°F9.3°C 48.5°F9.2°C 99% 4.1 mph ENE6.6 kmh ENE 5.4 mph8.7 kmh 29.70 in1005.8 mb 0.06 in1.5 mm 0.00 in0.0 mm 0.38 in9.7 mm
07:15 AM 48.7°F9.3°C 48.5°F9.2°C 99% 3.5 mph NE5.6 kmh NE 5.4 mph8.7 kmh 29.70 in1005.8 mb 0.06 in1.5 mm 0.00 in0.0 mm 0.39 in9.9 mm
07:20 AM 48.6°F9.2°C 48.3°F9.1°C 99% 2.6 mph NE4.2 kmh NE 4.5 mph7.2 kmh 29.70 in1005.8 mb 0.06 in1.5 mm 0.00 in0.0 mm 0.39 in9.9 mm
07:25 AM 48.6°F9.2°C 48.3°F9.1°C 99% 1.9 mph ENE3.1 kmh ENE 3.1 mph5.0 kmh 29.70 in1005.8 mb 0.06 in1.5 mm 0.00 in0.0 mm 0.40 in10.2 mm
07:30 AM 48.6°F9.2°C 48.3°F9.1°C 99% 1.4 mph NNE2.3 kmh NNE 3.1 mph5.0 kmh 29.70 in1005.8 mb 0.06 in1.5 mm 0.00 in0.0 mm 0.40 in10.2 mm
07:35 AM 48.6°F9.2°C 48.3°F9.1°C 99% 2.3 mph N3.7 kmh N 4.5 mph7.2 kmh 29.69 in1005.4 mb 0.05 in1.3 mm 0.00 in0.0 mm 0.40 in10.2 mm
07:40 AM 48.6°F9.2°C 48.3°F9.1°C 99% 2.5 mph N4.0 kmh N 4.5 mph7.2 kmh 29.70 in1005.8 mb 0.06 in1.5 mm 0.12 in3.0 mm 0.41 in10.4 mm
07:45 AM 48.6°F9.2°C 48.3°F9.1°C 99% 1.5 mph N2.4 kmh N 3.1 mph5.0 kmh 29.69 in1005.4 mb 0.07 in1.8 mm 0.12 in3.0 mm 0.43 in10.9 mm
07:50 AM 48.6°F9.2°C 48.3°F9.1°C 99% 1.3 mph NE2.1 kmh NE 2.2 mph3.5 kmh 29.69 in1005.4 mb 0.07 in1.8 mm 0.00 in0.0 mm 0.44 in11.2 mm
07:55 AM 48.7°F9.3°C 48.5°F9.2°C 99% 1.4 mph NE2.3 kmh NE 2.2 mph3.5 kmh 29.69 in1005.4 mb 0.07 in1.8 mm 0.00 in0.0 mm 0.44 in11.2 mm
08:00 AM 48.7°F9.3°C 48.5°F9.2°C 99% 1.1 mph N1.8 kmh N 2.2 mph3.5 kmh 29.69 in1005.4 mb 0.07 in1.8 mm 0.00 in0.0 mm 0.45 in11.4 mm
08:05 AM 48.7°F9.3°C 48.5°F9.2°C 99% 0.7 mph NNW1.1 kmh NNW 2.2 mph3.5 kmh 29.69 in1005.4 mb 0.07 in1.8 mm 0.00 in0.0 mm 0.45 in11.4 mm
08:10 AM 48.7°F9.3°C 48.5°F9.2°C 99% 0.9 mph NE1.4 kmh NE 2.2 mph3.5 kmh 29.69 in1005.4 mb 0.08 in2.0 mm 0.12 in3.0 mm 0.46 in11.7 mm
08:15 AM 48.9°F9.4°C 48.7°F9.3°C 99% 1.4 mph E2.3 kmh E 2.2 mph3.5 kmh 29.68 in1005.1 mb 0.07 in1.8 mm 0.00 in0.0 mm 0.46 in11.7 mm
08:20 AM 48.9°F9.4°C 48.7°F9.3°C 99% 2.0 mph E3.2 kmh E 3.8 mph6.1 kmh 29.68 in1005.1 mb 0.08 in2.0 mm 0.12 in3.0 mm 0.47 in11.9 mm
08:25 AM 48.9°F9.4°C 48.7°F9.3°C 99% 1.7 mph ENE2.7 kmh ENE 3.8 mph6.1 kmh 29.68 in1005.1 mb 0.07 in1.8 mm 0.00 in0.0 mm 0.47 in11.9 mm
08:30 AM 48.9°F9.4°C 48.7°F9.3°C 99% 1.3 mph NE2.1 kmh NE 3.1 mph5.0 kmh 29.68 in1005.1 mb 0.08 in2.0 mm 0.12 in3.0 mm 0.48 in12.2 mm
08:35 AM 48.9°F9.4°C 48.7°F9.3°C 99% 1.5 mph N2.4 kmh N 3.1 mph5.0 kmh 29.68 in1005.1 mb 0.07 in1.8 mm 0.00 in0.0 mm 0.48 in12.2 mm
08:40 AM 49.1°F9.5°C 48.8°F9.3°C 99% 1.1 mph N1.8 kmh N 3.1 mph5.0 kmh 29.68 in1005.1 mb 0.08 in2.0 mm 0.12 in3.0 mm 0.50 in12.7 mm
08:45 AM 49.1°F9.5°C 48.8°F9.3°C 99% 0.5 mph N0.8 kmh N 1.6 mph2.6 kmh 29.68 in1005.1 mb 0.07 in1.8 mm 0.00 in0.0 mm 0.50 in12.7 mm
08:50 AM 49.3°F9.6°C 49.0°F9.4°C 99% 0.9 mph ENE1.4 kmh ENE 2.2 mph3.5 kmh 29.68 in1005.1 mb 0.07 in1.8 mm 0.00 in0.0 mm 0.51 in13.0 mm
08:55 AM 49.3°F9.6°C 49.0°F9.4°C 99% 1.2 mph E1.9 kmh E 2.2 mph3.5 kmh 29.67 in1004.7 mb 0.07 in1.8 mm 0.00 in0.0 mm 0.51 in13.0 mm
09:00 AM 49.5°F9.7°C 49.2°F9.6°C 99% 1.4 mph E2.3 kmh E 2.2 mph3.5 kmh 29.67 in1004.7 mb 0.06 in1.5 mm 0.00 in0.0 mm 0.51 in13.0 mm
09:05 AM 49.6°F9.8°C 49.4°F9.7°C 99% 1.6 mph E2.6 kmh E 2.2 mph3.5 kmh 29.67 in1004.7 mb 0.06 in1.5 mm 0.00 in0.0 mm 0.51 in13.0 mm
09:10 AM 49.8°F9.9°C 49.6°F9.8°C 99% 1.4 mph E2.3 kmh E 2.2 mph3.5 kmh 29.68 in1005.1 mb 0.06 in1.5 mm 0.00 in0.0 mm 0.52 in13.2 mm
09:15 AM 49.8°F9.9°C 49.6°F9.8°C 99% 1.1 mph NE1.8 kmh NE 1.6 mph2.6 kmh 29.67 in1004.7 mb 0.06 in1.5 mm 0.00 in0.0 mm 0.52 in13.2 mm
09:20 AM 49.8°F9.9°C 49.6°F9.8°C 99% 1.0 mph ENE1.6 kmh ENE 2.2 mph3.5 kmh 29.67 in1004.7 mb 0.05 in1.3 mm 0.00 in0.0 mm 0.52 in13.2 mm
09:25 AM 50.0°F10.0°C 49.7°F9.8°C 99% 0.9 mph E1.4 kmh E 2.2 mph3.5 kmh 29.66 in1004.4 mb 0.05 in1.3 mm 0.00 in0.0 mm 0.52 in13.2 mm
09:30 AM 50.0°F10.0°C 49.7°F9.8°C 99% 0.8 mph NE1.3 kmh NE 1.6 mph2.6 kmh 29.67 in1004.7 mb 0.04 in1.0 mm 0.00 in0.0 mm 0.52 in13.2 mm
09:35 AM 50.0°F10.0°C 49.7°F9.8°C 99% 0.6 mph NNE1.0 kmh NNE 1.6 mph2.6 kmh 29.66 in1004.4 mb 0.04 in1.0 mm 0.00 in0.0 mm 0.52 in13.2 mm
09:40 AM 50.0°F10.0°C 49.7°F9.8°C 99% 0.1 mph N0.2 kmh N 0.7 mph1.1 kmh 29.67 in1004.7 mb 0.04 in1.0 mm 0.00 in0.0 mm 0.53 in13.5 mm
09:45 AM 50.0°F10.0°C 49.7°F9.8°C 99% 0.6 mph WNW1.0 kmh WNW 2.2 mph3.5 kmh 29.67 in1004.7 mb 0.04 in1.0 mm 0.00 in0.0 mm 0.53 in13.5 mm
09:50 AM 50.0°F10.0°C 49.7°F9.8°C 99% 1.3 mph WNW2.1 kmh WNW 3.1 mph5.0 kmh 29.67 in1004.7 mb 0.02 in0.5 mm 0.00 in0.0 mm 0.53 in13.5 mm
09:55 AM 49.8°F9.9°C 49.6°F9.8°C 99% 1.7 mph WNW2.7 kmh WNW 3.1 mph5.0 kmh 29.67 in1004.7 mb 0.02 in0.5 mm 0.00 in0.0 mm 0.53 in13.5 mm
10:00 AM 50.2°F10.1°C 49.9°F9.9°C 99% 1.9 mph W3.1 kmh W 3.1 mph5.0 kmh 29.66 in1004.4 mb 0.04 in1.0 mm 0.02 in0.5 mm 0.54 in13.7 mm
10:05 AM 50.2°F10.1°C 49.9°F9.9°C 99% 1.4 mph W2.3 kmh W 2.2 mph3.5 kmh 29.66 in1004.4 mb 0.04 in1.0 mm 0.00 in0.0 mm 0.54 in13.7 mm
10:10 AM 50.2°F10.1°C 49.9°F9.9°C 99% 1.1 mph WSW1.8 kmh WSW 1.6 mph2.6 kmh 29.66 in1004.4 mb 0.04 in1.0 mm 0.00 in0.0 mm 0.56 in14.2 mm
10:15 AM 50.4°F10.2°C 50.1°F10.1°C 99% 1.2 mph W1.9 kmh W 2.2 mph3.5 kmh 29.66 in1004.4 mb 0.04 in1.0 mm 0.00 in0.0 mm 0.56 in14.2 mm
10:20 AM 50.5°F10.3°C 50.3°F10.2°C 99% 1.1 mph W1.8 kmh W 2.2 mph3.5 kmh 29.66 in1004.4 mb 0.04 in1.0 mm 0.00 in0.0 mm 0.56 in14.2 mm
10:25 AM 50.5°F10.3°C 50.3°F10.2°C 99% 0.6 mph WNW1.0 kmh WNW 1.6 mph2.6 kmh 29.66 in1004.4 mb 0.04 in1.0 mm 0.00 in0.0 mm 0.56 in14.2 mm
10:30 AM 50.5°F10.3°C 50.3°F10.2°C 99% 0.6 mph W1.0 kmh W 2.2 mph3.5 kmh 29.66 in1004.4 mb 0.04 in1.0 mm 0.00 in0.0 mm 0.56 in14.2 mm
10:35 AM 50.7°F10.4°C 50.5°F10.3°C 99% 1.0 mph WSW1.6 kmh WSW 2.2 mph3.5 kmh 29.65 in1004.1 mb 0.04 in1.0 mm 0.00 in0.0 mm 0.56 in14.2 mm
10:40 AM 50.9°F10.5°C 50.6°F10.3°C 99% 2.0 mph SE3.2 kmh SE 4.5 mph7.2 kmh 29.62 in1003.0 mb 0.02 in0.5 mm 0.00 in0.0 mm 0.56 in14.2 mm
10:45 AM 50.9°F10.5°C 50.6°F10.3°C 99% 3.0 mph SE4.8 kmh SE 4.5 mph7.2 kmh 29.63 in1003.4 mb 0.04 in1.0 mm 0.24 in6.1 mm 0.57 in14.5 mm
10:50 AM 50.9°F10.5°C 50.6°F10.3°C 99% 2.7 mph SE4.3 kmh SE 4.5 mph7.2 kmh 29.62 in1003.0 mb 0.04 in1.0 mm 0.00 in0.0 mm 0.57 in14.5 mm
10:55 AM 51.3°F10.7°C 51.0°F10.6°C 99% 1.4 mph ESE2.3 kmh ESE 3.8 mph6.1 kmh 29.63 in1003.4 mb 0.04 in1.0 mm 0.00 in0.0 mm 0.57 in14.5 mm
11:00 AM 51.3°F10.7°C 51.0°F10.6°C 99% 1.1 mph WNW1.8 kmh WNW 3.1 mph5.0 kmh 29.64 in1003.7 mb 0.02 in0.5 mm 0.00 in0.0 mm 0.57 in14.5 mm
11:05 AM 51.3°F10.7°C 51.0°F10.6°C 99% 2.5 mph WNW4.0 kmh WNW 5.4 mph8.7 kmh 29.65 in1004.1 mb 0.02 in0.5 mm 0.00 in0.0 mm 0.57 in14.5 mm
11:10 AM 51.3°F10.7°C 51.0°F10.6°C 99% 4.4 mph WNW7.1 kmh WNW 6.9 mph11.1 kmh 29.64 in1003.7 mb 0.01 in0.3 mm 0.00 in0.0 mm 0.57 in14.5 mm
11:15 AM 51.1°F10.6°C 50.8°F10.4°C 99% 5.0 mph W8.0 kmh W 6.9 mph11.1 kmh 29.64 in1003.7 mb 0.01 in0.3 mm 0.00 in0.0 mm 0.57 in14.5 mm
11:20 AM 51.4°F10.8°C 51.2°F10.7°C 99% 4.8 mph W7.7 kmh W 7.6 mph12.2 kmh 29.64 in1003.7 mb 0.01 in0.3 mm 0.00 in0.0 mm 0.57 in14.5 mm
11:25 AM 51.6°F10.9°C 51.4°F10.8°C 99% 4.9 mph WNW7.9 kmh WNW 7.6 mph12.2 kmh 29.64 in1003.7 mb 0.01 in0.3 mm 0.00 in0.0 mm 0.57 in14.5 mm
11:30 AM 51.6°F10.9°C 51.4°F10.8°C 99% 6.0 mph WNW9.7 kmh WNW 8.3 mph13.4 kmh 29.64 in1003.7 mb 0.01 in0.3 mm 0.00 in0.0 mm 0.57 in14.5 mm
11:35 AM 51.4°F10.8°C 50.9°F10.5°C 98% 7.9 mph WNW12.7 kmh WNW 12.1 mph19.5 kmh 29.64 in1003.7 mb 0.02 in0.5 mm 0.12 in3.0 mm 0.58 in14.7 mm
11:40 AM 51.3°F10.7°C 51.0°F10.6°C 99% 8.4 mph WNW13.5 kmh WNW 12.1 mph19.5 kmh 29.63 in1003.4 mb 0.02 in0.5 mm 0.00 in0.0 mm 0.58 in14.7 mm
11:45 AM 51.4°F10.8°C 51.2°F10.7°C 99% 7.6 mph NW12.2 kmh NW 11.4 mph18.3 kmh 29.62 in1003.0 mb 0.01 in0.3 mm 0.00 in0.0 mm 0.58 in14.7 mm
11:50 AM 51.4°F10.8°C 51.2°F10.7°C 99% 7.5 mph NNW12.1 kmh NNW 10.7 mph17.2 kmh 29.61 in1002.7 mb 0.01 in0.3 mm 0.00 in0.0 mm 0.58 in14.7 mm
11:55 AM 51.6°F10.9°C 51.4°F10.8°C 99% 7.3 mph NNW11.7 kmh NNW 10.7 mph17.2 kmh 29.61 in1002.7 mb 0.01 in0.3 mm 0.00 in0.0 mm 0.58 in14.7 mm
12:00 PM 52.0°F11.1°C 51.7°F10.9°C 99% 6.9 mph NW11.1 kmh NW 9.8 mph15.8 kmh 29.61 in1002.7 mb 0.01 in0.3 mm 0.00 in0.0 mm 0.58 in14.7 mm
12:05 PM 52.0°F11.1°C 51.7°F10.9°C 99% 8.0 mph NW12.9 kmh NW 11.4 mph18.3 kmh 29.61 in1002.7 mb 0.01 in0.3 mm 0.00 in0.0 mm 0.58 in14.7 mm
12:10 PM 51.8°F11.0°C 51.5°F10.8°C 99% 8.2 mph NW13.2 kmh NW 11.4 mph18.3 kmh 29.61 in1002.7 mb 0.01 in0.3 mm 0.00 in0.0 mm 0.58 in14.7 mm
12:15 PM 51.6°F10.9°C 51.4°F10.8°C 99% 8.0 mph NW12.9 kmh NW 10.7 mph17.2 kmh 29.61 in1002.7 mb 0.01 in0.3 mm 0.00 in0.0 mm 0.58 in14.7 mm
12:20 PM 51.6°F10.9°C 51.4°F10.8°C 99% 8.5 mph NW13.7 kmh NW 10.7 mph17.2 kmh 29.60 in1002.4 mb 0.01 in0.3 mm 0.00 in0.0 mm 0.58 in14.7 mm
12:25 PM 51.6°F10.9°C 51.4°F10.8°C 99% 8.2 mph NW13.2 kmh NW 13.0 mph20.9 kmh 29.60 in1002.4 mb 0.01 in0.3 mm 0.00 in0.0 mm 0.58 in14.7 mm
12:30 PM 51.8°F11.0°C 51.3°F10.7°C 98% 9.0 mph NW14.5 kmh NW 13.0 mph20.9 kmh 29.60 in1002.4 mb 0.01 in0.3 mm 0.00 in0.0 mm 0.58 in14.7 mm
12:35 PM 51.8°F11.0°C 51.3°F10.7°C 98% 9.4 mph NW15.1 kmh NW 13.0 mph20.9 kmh 29.61 in1002.7 mb 0.00 in0.0 mm 0.00 in0.0 mm 0.58 in14.7 mm
12:40 PM 51.8°F11.0°C 51.3°F10.7°C 98% 8.0 mph NW12.9 kmh NW 11.4 mph18.3 kmh 29.60 in1002.4 mb 0.00 in0.0 mm 0.00 in0.0 mm 0.58 in14.7 mm
12:45 PM 51.8°F11.0°C 51.3°F10.7°C 98% 7.2 mph NW11.6 kmh NW 8.3 mph13.4 kmh 29.60 in1002.4 mb 0.00 in0.0 mm 0.00 in0.0 mm 0.58 in14.7 mm
12:50 PM 51.8°F11.0°C 51.3°F10.7°C 98% 8.2 mph NW13.2 kmh NW 13.0 mph20.9 kmh 29.60 in1002.4 mb 0.00 in0.0 mm 0.00 in0.0 mm 0.58 in14.7 mm
12:55 PM 51.8°F11.0°C 51.3°F10.7°C 98% 9.0 mph NW14.5 kmh NW 13.0 mph20.9 kmh 29.60 in1002.4 mb 0.00 in0.0 mm 0.00 in0.0 mm 0.58 in14.7 mm
01:00 PM 52.0°F11.1°C 51.4°F10.8°C 98% 7.5 mph WNW12.1 kmh WNW 13.0 mph20.9 kmh 29.60 in1002.4 mb 0.00 in0.0 mm 0.00 in0.0 mm 0.58 in14.7 mm
01:05 PM 51.8°F11.0°C 51.3°F10.7°C 98% 6.8 mph NW10.9 kmh NW 9.8 mph15.8 kmh 29.61 in1002.7 mb 0.00 in0.0 mm 0.00 in0.0 mm 0.58 in14.7 mm
01:10 PM 52.0°F11.1°C 51.4°F10.8°C 98% 6.2 mph NW10.0 kmh NW 9.8 mph15.8 kmh 29.60 in1002.4 mb 0.00 in0.0 mm 0.00 in0.0 mm 0.58 in14.7 mm
01:15 PM 52.3°F11.3°C 52.1°F11.2°C 99% 5.8 mph WNW9.3 kmh WNW 8.3 mph13.4 kmh 29.60 in1002.4 mb 0.00 in0.0 mm 0.00 in0.0 mm 0.58 in14.7 mm
01:20 PM 52.3°F11.3°C 51.8°F11.0°C 98% 6.6 mph WNW10.6 kmh WNW 8.3 mph13.4 kmh 29.60 in1002.4 mb 0.00 in0.0 mm 0.00 in0.0 mm 0.58 in14.7 mm
01:25 PM 52.7°F11.5°C 52.4°F11.3°C 99% 7.4 mph NW11.9 kmh NW 9.8 mph15.8 kmh 29.60 in1002.4 mb 0.00 in0.0 mm 0.00 in0.0 mm 0.58 in14.7 mm
01:30 PM 52.9°F11.6°C 52.3°F11.3°C 98% 8.1 mph NW13.0 kmh NW 9.8 mph15.8 kmh 29.59 in1002.0 mb 0.00 in0.0 mm 0.00 in0.0 mm 0.58 in14.7 mm
01:35 PM 53.2°F11.8°C 52.4°F11.3°C 97% 9.2 mph NW14.8 kmh NW 14.5 mph23.3 kmh 29.59 in1002.0 mb 0.00 in0.0 mm 0.00 in0.0 mm 0.58 in14.7 mm
01:40 PM 54.0°F12.2°C 52.9°F11.6°C 96% 9.3 mph WNW15.0 kmh WNW 14.5 mph23.3 kmh 29.59 in1002.0 mb 0.00 in0.0 mm 0.00 in0.0 mm 0.58 in14.7 mm
01:45 PM 54.0°F12.2°C 52.6°F11.4°C 95% 7.3 mph WNW11.7 kmh WNW 10.7 mph17.2 kmh 29.59 in1002.0 mb 0.00 in0.0 mm 0.00 in0.0 mm 0.58 in14.7 mm
01:50 PM 54.0°F12.2°C 52.0°F11.1°C 93% 6.7 mph W10.8 kmh W 11.4 mph18.3 kmh 29.59 in1002.0 mb 0.00 in0.0 mm 0.00 in0.0 mm 0.58 in14.7 mm
01:55 PM 53.8°F12.1°C 51.8°F11.0°C 93% 7.7 mph W12.4 kmh W 11.4 mph18.3 kmh 29.59 in1002.0 mb 0.00 in0.0 mm 0.00 in0.0 mm 0.58 in14.7 mm
02:00 PM 54.0°F12.2°C 51.7°F10.9°C 92% 7.8 mph WNW12.6 kmh WNW 13.0 mph20.9 kmh 29.59 in1002.0 mb 0.00 in0.0 mm 0.00 in0.0 mm 0.58 in14.7 mm
02:05 PM 54.1°F12.3°C 51.9°F11.1°C 92% 7.9 mph W12.7 kmh W 13.0 mph20.9 kmh 29.59 in1002.0 mb 0.00 in0.0 mm 0.00 in0.0 mm 0.58 in14.7 mm
02:10 PM 55.0°F12.8°C 52.8°F11.6°C 92% 7.4 mph W11.9 kmh W 13.0 mph20.9 kmh 29.58 in1001.7 mb 0.00 in0.0 mm 0.00 in0.0 mm 0.58 in14.7 mm
02:15 PM 55.2°F12.9°C 52.3°F11.3°C 90% 6.3 mph WNW10.1 kmh WNW 7.6 mph12.2 kmh 29.58 in1001.7 mb 0.00 in0.0 mm 0.00 in0.0 mm 0.58 in14.7 mm
02:20 PM 55.0°F12.8°C 51.9°F11.1°C 89% 8.0 mph W12.9 kmh W 12.1 mph19.5 kmh 29.59 in1002.0 mb 0.00 in0.0 mm 0.00 in0.0 mm 0.58 in14.7 mm
02:25 PM 54.9°F12.7°C 51.7°F10.9°C 89% 9.0 mph W14.5 kmh W 12.1 mph19.5 kmh 29.59 in1002.0 mb 0.00 in0.0 mm 0.00 in0.0 mm 0.58 in14.7 mm
02:30 PM 54.9°F12.7°C 51.7°F10.9°C 89% 8.1 mph WNW13.0 kmh WNW 12.1 mph19.5 kmh 29.58 in1001.7 mb 0.00 in0.0 mm 0.00 in0.0 mm 0.58 in14.7 mm
02:35 PM 54.5°F12.5°C 51.0°F10.6°C 88% 8.8 mph WNW14.2 kmh WNW 14.5 mph23.3 kmh 29.59 in1002.0 mb 0.00 in0.0 mm 0.00 in0.0 mm 0.58 in14.7 mm
02:40 PM 54.5°F12.5°C 51.3°F10.7°C 89% 8.1 mph W13.0 kmh W 14.5 mph23.3 kmh 29.58 in1001.7 mb 0.00 in0.0 mm 0.00 in0.0 mm 0.58 in14.7 mm
02:45 PM 54.5°F12.5°C 51.0°F10.6°C 88% 7.3 mph W11.7 kmh W 10.7 mph17.2 kmh 29.59 in1002.0 mb 0.00 in0.0 mm 0.00 in0.0 mm 0.58 in14.7 mm
02:50 PM 54.3°F12.4°C 51.2°F10.7°C 89% 7.4 mph W11.9 kmh W 10.7 mph17.2 kmh 29.59 in1002.0 mb 0.00 in0.0 mm 0.00 in0.0 mm 0.58 in14.7 mm
02:55 PM 54.5°F12.5°C 51.3°F10.7°C 89% 6.0 mph WNW9.7 kmh WNW 8.3 mph13.4 kmh 29.59 in1002.0 mb 0.00 in0.0 mm 0.00 in0.0 mm 0.58 in14.7 mm
03:00 PM 54.5°F12.5°C 51.3°F10.7°C 89% 5.4 mph W8.7 kmh W 9.8 mph15.8 kmh 29.59 in1002.0 mb 0.00 in0.0 mm 0.00 in0.0 mm 0.58 in14.7 mm
03:05 PM 54.5°F12.5°C 51.3°F10.7°C 89% 6.9 mph W11.1 kmh W 9.8 mph15.8 kmh 29.59 in1002.0 mb 0.00 in0.0 mm 0.00 in0.0 mm 0.58 in14.7 mm
03:10 PM 54.5°F12.5°C 51.0°F10.6°C 88% 8.3 mph W13.4 kmh W 11.4 mph18.3 kmh 29.59 in1002.0 mb 0.00 in0.0 mm 0.00 in0.0 mm 0.58 in14.7 mm
03:15 PM 54.3°F12.4°C 50.8°F10.4°C 88% 7.8 mph W12.6 kmh W 11.4 mph18.3 kmh 29.59 in1002.0 mb 0.00 in0.0 mm 0.00 in0.0 mm 0.58 in14.7 mm
03:20 PM 54.1°F12.3°C 50.7°F10.4°C 88% 7.7 mph WSW12.4 kmh WSW 9.8 mph15.8 kmh 29.59 in1002.0 mb 0.00 in0.0 mm 0.00 in0.0 mm 0.58 in14.7 mm
03:25 PM 54.0°F12.2°C 50.5°F10.3°C 88% 8.1 mph W13.0 kmh W 9.8 mph15.8 kmh 29.59 in1002.0 mb 0.00 in0.0 mm 0.00 in0.0 mm 0.58 in14.7 mm
03:30 PM 54.3°F12.4°C 50.8°F10.4°C 88% 7.1 mph W11.4 kmh W 9.8 mph15.8 kmh 29.58 in1001.7 mb 0.00 in0.0 mm 0.00 in0.0 mm 0.58 in14.7 mm
03:35 PM 54.3°F12.4°C 50.8°F10.4°C 88% 5.1 mph W8.2 kmh W 9.8 mph15.8 kmh 29.59 in1002.0 mb 0.00 in0.0 mm 0.00 in0.0 mm 0.58 in14.7 mm
03:40 PM 54.3°F12.4°C 50.8°F10.4°C 88% 4.2 mph W6.8 kmh W 6.0 mph9.7 kmh 29.59 in1002.0 mb 0.00 in0.0 mm 0.00 in0.0 mm 0.58 in14.7 mm
03:45 PM 54.5°F12.5°C 51.0°F10.6°C 88% 4.1 mph W6.6 kmh W 6.0 mph9.7 kmh 29.59 in1002.0 mb 0.00 in0.0 mm 0.00 in0.0 mm 0.58 in14.7 mm
03:50 PM 54.3°F12.4°C 50.8°F10.4°C 88% 4.5 mph WSW7.2 kmh WSW 6.0 mph9.7 kmh 29.59 in1002.0 mb 0.00 in0.0 mm 0.00 in0.0 mm 0.58 in14.7 mm
03:55 PM 54.3°F12.4°C 50.8°F10.4°C 88% 4.7 mph W7.6 kmh W 6.9 mph11.1 kmh 29.59 in1002.0 mb 0.00 in0.0 mm 0.00 in0.0 mm 0.58 in14.7 mm
04:00 PM 54.1°F12.3°C 50.7°F10.4°C 88% 5.2 mph W8.4 kmh W 6.9 mph11.1 kmh 29.59 in1002.0 mb 0.00 in0.0 mm 0.00 in0.0 mm 0.58 in14.7 mm
04:05 PM 54.1°F12.3°C 50.7°F10.4°C 88% 4.8 mph W7.7 kmh W 8.3 mph13.4 kmh 29.59 in1002.0 mb 0.00 in0.0 mm 0.00 in0.0 mm 0.58 in14.7 mm
04:10 PM 54.1°F12.3°C 51.0°F10.6°C 89% 3.9 mph WSW6.3 kmh WSW 8.3 mph13.4 kmh 29.59 in1002.0 mb 0.00 in0.0 mm 0.00 in0.0 mm 0.58 in14.7 mm
04:15 PM 54.0°F12.2°C 50.5°F10.3°C 88% 4.2 mph W6.8 kmh W 5.4 mph8.7 kmh 29.59 in1002.0 mb 0.00 in0.0 mm 0.00 in0.0 mm 0.58 in14.7 mm
04:20 PM 53.8°F12.1°C 50.6°F10.3°C 89% 4.2 mph W6.8 kmh W 5.4 mph8.7 kmh 29.59 in1002.0 mb 0.00 in0.0 mm 0.00 in0.0 mm 0.58 in14.7 mm
04:25 PM 53.8°F12.1°C 50.6°F10.3°C 89% 3.2 mph W5.1 kmh W 4.5 mph7.2 kmh 29.60 in1002.4 mb 0.00 in0.0 mm 0.00 in0.0 mm 0.58 in14.7 mm
04:30 PM 53.6°F12.0°C 50.4°F10.2°C 89% 3.4 mph W5.5 kmh W 5.4 mph8.7 kmh 29.59 in1002.0 mb 0.00 in0.0 mm 0.00 in0.0 mm 0.58 in14.7 mm
04:35 PM 53.4°F11.9°C 50.3°F10.2°C 89% 3.2 mph W5.1 kmh W 5.4 mph8.7 kmh 29.60 in1002.4 mb 0.00 in0.0 mm 0.00 in0.0 mm 0.58 in14.7 mm
04:40 PM 53.1°F11.7°C 49.9°F9.9°C 89% 3.5 mph W5.6 kmh W 6.0 mph9.7 kmh 29.60 in1002.4 mb 0.00 in0.0 mm 0.00 in0.0 mm 0.58 in14.7 mm
04:45 PM 52.7°F11.5°C 49.9°F9.9°C 90% 4.7 mph W7.6 kmh W 6.0 mph9.7 kmh 29.59 in1002.0 mb 0.00 in0.0 mm 0.00 in0.0 mm 0.58 in14.7 mm
04:50 PM 52.5°F11.4°C 49.7°F9.8°C 90% 6.0 mph W9.7 kmh W 9.2 mph14.8 kmh 29.60 in1002.4 mb 0.00 in0.0 mm 0.00 in0.0 mm 0.58 in14.7 mm
04:55 PM 52.3°F11.3°C 49.5°F9.7°C 90% 6.0 mph W9.7 kmh W 9.2 mph14.8 kmh 29.59 in1002.0 mb 0.00 in0.0 mm 0.00 in0.0 mm 0.58 in14.7 mm
05:00 PM 52.2°F11.2°C 49.3°F9.6°C 90% 5.9 mph WNW9.5 kmh WNW 9.2 mph14.8 kmh 29.59 in1002.0 mb 0.01 in0.3 mm 0.01 in0.3 mm 0.59 in15.0 mm
05:05 PM 52.0°F11.1°C 49.1°F9.5°C 90% 6.0 mph W9.7 kmh W 9.2 mph14.8 kmh 29.60 in1002.4 mb 0.01 in0.3 mm 0.00 in0.0 mm 0.59 in15.0 mm
05:10 PM 52.0°F11.1°C 49.1°F9.5°C 90% 4.1 mph W6.6 kmh W 7.6 mph12.2 kmh 29.60 in1002.4 mb 0.01 in0.3 mm 0.00 in0.0 mm 0.59 in15.0 mm
05:15 PM 52.0°F11.1°C 49.1°F9.5°C 90% 2.9 mph W4.7 kmh W 4.5 mph7.2 kmh 29.60 in1002.4 mb 0.01 in0.3 mm 0.00 in0.0 mm 0.59 in15.0 mm
05:20 PM 51.8°F11.0°C 49.3°F9.6°C 91% 2.8 mph W4.5 kmh W 5.4 mph8.7 kmh 29.61 in1002.7 mb 0.01 in0.3 mm 0.00 in0.0 mm 0.59 in15.0 mm
05:25 PM 51.6°F10.9°C 49.1°F9.5°C 91% 3.0 mph W4.8 kmh W 5.4 mph8.7 kmh 29.60 in1002.4 mb 0.01 in0.3 mm 0.00 in0.0 mm 0.59 in15.0 mm
05:30 PM 51.6°F10.9°C 49.1°F9.5°C 91% 2.8 mph W4.5 kmh W 5.4 mph8.7 kmh 29.61 in1002.7 mb 0.01 in0.3 mm 0.00 in0.0 mm 0.59 in15.0 mm
05:35 PM 51.6°F10.9°C 49.1°F9.5°C 91% 2.9 mph W4.7 kmh W 4.5 mph7.2 kmh 29.61 in1002.7 mb 0.01 in0.3 mm 0.00 in0.0 mm 0.59 in15.0 mm
05:40 PM 51.4°F10.8°C 48.9°F9.4°C 91% 3.1 mph WNW5.0 kmh WNW 4.5 mph7.2 kmh 29.61 in1002.7 mb 0.01 in0.3 mm 0.00 in0.0 mm 0.59 in15.0 mm
05:45 PM 51.6°F10.9°C 49.4°F9.7°C 92% 3.3 mph NW5.3 kmh NW 4.5 mph7.2 kmh 29.61 in1002.7 mb 0.01 in0.3 mm 0.00 in0.0 mm 0.59 in15.0 mm
05:50 PM 51.4°F10.8°C 49.2°F9.6°C 92% 4.3 mph NW6.9 kmh NW 6.9 mph11.1 kmh 29.61 in1002.7 mb 0.01 in0.3 mm 0.00 in0.0 mm 0.59 in15.0 mm
05:55 PM 51.4°F10.8°C 49.2°F9.6°C 92% 5.0 mph NW8.0 kmh NW 6.9 mph11.1 kmh 29.61 in1002.7 mb 0.01 in0.3 mm 0.00 in0.0 mm 0.59 in15.0 mm
06:00 PM 51.6°F10.9°C 49.4°F9.7°C 92% 5.3 mph NW8.5 kmh NW 6.9 mph11.1 kmh 29.61 in1002.7 mb 0.00 in0.0 mm 0.00 in0.0 mm 0.59 in15.0 mm
06:05 PM 51.6°F10.9°C 49.4°F9.7°C 92% 5.7 mph WNW9.2 kmh WNW 6.9 mph11.1 kmh 29.61 in1002.7 mb 0.00 in0.0 mm 0.00 in0.0 mm 0.59 in15.0 mm
06:10 PM 51.6°F10.9°C 49.4°F9.7°C 92% 5.6 mph WNW9.0 kmh WNW 6.9 mph11.1 kmh 29.62 in1003.0 mb 0.00 in0.0 mm 0.00 in0.0 mm 0.59 in15.0 mm
06:15 PM 51.6°F10.9°C 49.4°F9.7°C 92% 5.7 mph WNW9.2 kmh WNW 7.6 mph12.2 kmh 29.61 in1002.7 mb 0.00 in0.0 mm 0.00 in0.0 mm 0.59 in15.0 mm
06:20 PM 51.4°F10.8°C 49.2°F9.6°C 92% 6.8 mph W10.9 kmh W 10.7 mph17.2 kmh 29.62 in1003.0 mb 0.00 in0.0 mm 0.00 in0.0 mm 0.59 in15.0 mm
06:25 PM 51.3°F10.7°C 48.4°F9.1°C 90% 8.1 mph WNW13.0 kmh WNW 12.1 mph19.5 kmh 29.62 in1003.0 mb 0.00 in0.0 mm 0.00 in0.0 mm 0.59 in15.0 mm
06:30 PM 51.1°F10.6°C 48.5°F9.2°C 91% 9.0 mph WNW14.5 kmh WNW 12.1 mph19.5 kmh 29.62 in1003.0 mb 0.00 in0.0 mm 0.00 in0.0 mm 0.59 in15.0 mm
06:35 PM 50.9°F10.5°C 48.1°F8.9°C 90% 8.7 mph WNW14.0 kmh WNW 10.7 mph17.2 kmh 29.63 in1003.4 mb 0.00 in0.0 mm 0.00 in0.0 mm 0.59 in15.0 mm
06:40 PM 50.9°F10.5°C 48.1°F8.9°C 90% 7.0 mph WNW11.3 kmh WNW 9.2 mph14.8 kmh 29.63 in1003.4 mb 0.00 in0.0 mm 0.00 in0.0 mm 0.59 in15.0 mm
06:45 PM 50.5°F10.3°C 47.7°F8.7°C 90% 6.8 mph W10.9 kmh W 10.7 mph17.2 kmh 29.64 in1003.7 mb 0.00 in0.0 mm 0.00 in0.0 mm 0.59 in15.0 mm
06:50 PM 50.5°F10.3°C 47.7°F8.7°C 90% 5.9 mph W9.5 kmh W 10.7 mph17.2 kmh 29.64 in1003.7 mb 0.00 in0.0 mm 0.00 in0.0 mm 0.59 in15.0 mm
06:55 PM 50.4°F10.2°C 47.5°F8.6°C 90% 4.4 mph WNW7.1 kmh WNW 6.0 mph9.7 kmh 29.64 in1003.7 mb 0.00 in0.0 mm 0.00 in0.0 mm 0.59 in15.0 mm
07:00 PM 50.2°F10.1°C 47.7°F8.7°C 91% 4.9 mph WNW7.9 kmh WNW 6.0 mph9.7 kmh 29.64 in1003.7 mb 0.00 in0.0 mm 0.00 in0.0 mm 0.59 in15.0 mm
07:05 PM 50.0°F10.0°C 47.5°F8.6°C 91% 4.2 mph WNW6.8 kmh WNW 6.0 mph9.7 kmh 29.64 in1003.7 mb 0.00 in0.0 mm 0.00 in0.0 mm 0.59 in15.0 mm
07:10 PM 49.8°F9.9°C 47.3°F8.5°C 91% 3.7 mph WNW6.0 kmh WNW 5.4 mph8.7 kmh 29.65 in1004.1 mb 0.00 in0.0 mm 0.00 in0.0 mm 0.59 in15.0 mm
07:15 PM 49.6°F9.8°C 47.1°F8.4°C 91% 4.9 mph WNW7.9 kmh WNW 6.9 mph11.1 kmh 29.65 in1004.1 mb 0.00 in0.0 mm 0.00 in0.0 mm 0.59 in15.0 mm
07:20 PM 49.6°F9.8°C 47.1°F8.4°C 91% 6.4 mph WNW10.3 kmh WNW 9.2 mph14.8 kmh 29.65 in1004.1 mb 0.00 in0.0 mm 0.00 in0.0 mm 0.59 in15.0 mm
07:25 PM 49.6°F9.8°C 47.1°F8.4°C 91% 7.2 mph NW11.6 kmh NW 11.4 mph18.3 kmh 29.65 in1004.1 mb 0.00 in0.0 mm 0.00 in0.0 mm 0.59 in15.0 mm
07:30 PM 49.6°F9.8°C 47.1°F8.4°C 91% 7.5 mph NW12.1 kmh NW 11.4 mph18.3 kmh 29.65 in1004.1 mb 0.00 in0.0 mm 0.00 in0.0 mm 0.59 in15.0 mm
07:35 PM 49.8°F9.9°C 47.3°F8.5°C 91% 7.0 mph W11.3 kmh W 11.4 mph18.3 kmh 29.65 in1004.1 mb 0.00 in0.0 mm 0.00 in0.0 mm 0.59 in15.0 mm
07:40 PM 49.8°F9.9°C 47.3°F8.5°C 91% 6.4 mph WSW10.3 kmh WSW 11.4 mph18.3 kmh 29.65 in1004.1 mb 0.00 in0.0 mm 0.00 in0.0 mm 0.59 in15.0 mm
07:45 PM 49.8°F9.9°C 47.3°F8.5°C 91% 5.5 mph W8.9 kmh W 7.6 mph12.2 kmh 29.65 in1004.1 mb 0.00 in0.0 mm 0.00 in0.0 mm 0.59 in15.0 mm
07:50 PM 49.8°F9.9°C 47.3°F8.5°C 91% 4.8 mph W7.7 kmh W 7.6 mph12.2 kmh 29.66 in1004.4 mb 0.00 in0.0 mm 0.00 in0.0 mm 0.59 in15.0 mm
07:55 PM 49.8°F9.9°C 47.3°F8.5°C 91% 5.2 mph WSW8.4 kmh WSW 9.2 mph14.8 kmh 29.67 in1004.7 mb 0.00 in0.0 mm 0.00 in0.0 mm 0.59 in15.0 mm
08:00 PM 49.8°F9.9°C 47.0°F8.3°C 90% 5.7 mph WSW9.2 kmh WSW 9.2 mph14.8 kmh 29.67 in1004.7 mb 0.00 in0.0 mm 0.00 in0.0 mm 0.59 in15.0 mm
08:05 PM 49.8°F9.9°C 47.3°F8.5°C 91% 5.8 mph WSW9.3 kmh WSW 7.6 mph12.2 kmh 29.66 in1004.4 mb 0.00 in0.0 mm 0.00 in0.0 mm 0.59 in15.0 mm
08:10 PM 49.8°F9.9°C 47.0°F8.3°C 90% 5.4 mph W8.7 kmh W 7.6 mph12.2 kmh 29.66 in1004.4 mb 0.00 in0.0 mm 0.00 in0.0 mm 0.59 in15.0 mm
08:15 PM 49.8°F9.9°C 47.0°F8.3°C 90% 5.7 mph W9.2 kmh W 7.6 mph12.2 kmh 29.66 in1004.4 mb 0.00 in0.0 mm 0.00 in0.0 mm 0.59 in15.0 mm
08:20 PM 49.6°F9.8°C 46.8°F8.2°C 90% 5.2 mph W8.4 kmh W 7.6 mph12.2 kmh 29.67 in1004.7 mb 0.00 in0.0 mm 0.00 in0.0 mm 0.59 in15.0 mm
08:25 PM 49.6°F9.8°C 46.8°F8.2°C 90% 4.3 mph W6.9 kmh W 7.6 mph12.2 kmh 29.66 in1004.4 mb 0.00 in0.0 mm 0.00 in0.0 mm 0.59 in15.0 mm
08:30 PM 49.6°F9.8°C 46.8°F8.2°C 90% 5.9 mph W9.5 kmh W 9.2 mph14.8 kmh 29.67 in1004.7 mb 0.00 in0.0 mm 0.00 in0.0 mm 0.59 in15.0 mm
08:35 PM 49.6°F9.8°C 46.5°F8.1°C 89% 7.3 mph W11.7 kmh W 9.2 mph14.8 kmh 29.67 in1004.7 mb 0.00 in0.0 mm 0.00 in0.0 mm 0.59 in15.0 mm
08:40 PM 49.6°F9.8°C 46.5°F8.1°C 89% 6.8 mph W10.9 kmh W 9.2 mph14.8 kmh 29.67 in1004.7 mb 0.00 in0.0 mm 0.00 in0.0 mm 0.59 in15.0 mm
08:45 PM 49.5°F9.7°C 46.4°F8.0°C 89% 6.8 mph W10.9 kmh W 9.2 mph14.8 kmh 29.67 in1004.7 mb 0.00 in0.0 mm 0.00 in0.0 mm 0.59 in15.0 mm
08:50 PM 49.3°F9.6°C 46.2°F7.9°C 89% 6.7 mph WSW10.8 kmh WSW 9.2 mph14.8 kmh 29.68 in1005.1 mb 0.00 in0.0 mm 0.00 in0.0 mm 0.59 in15.0 mm
08:55 PM 49.3°F9.6°C 46.2°F7.9°C 89% 7.2 mph W11.6 kmh W 10.7 mph17.2 kmh 29.68 in1005.1 mb 0.00 in0.0 mm 0.00 in0.0 mm 0.59 in15.0 mm
09:00 PM 49.3°F9.6°C 46.2°F7.9°C 89% 6.3 mph W10.1 kmh W 10.7 mph17.2 kmh 29.68 in1005.1 mb 0.00 in0.0 mm 0.00 in0.0 mm 0.59 in15.0 mm
09:05 PM 49.3°F9.6°C 46.2°F7.9°C 89% 4.9 mph W7.9 kmh W 9.2 mph14.8 kmh 29.68 in1005.1 mb 0.00 in0.0 mm 0.00 in0.0 mm 0.59 in15.0 mm
09:10 PM 49.1°F9.5°C 46.0°F7.8°C 89% 6.2 mph W10.0 kmh W 9.2 mph14.8 kmh 29.68 in1005.1 mb 0.00 in0.0 mm 0.00 in0.0 mm 0.59 in15.0 mm
09:15 PM 48.9°F9.4°C 45.8°F7.7°C 89% 6.3 mph W10.1 kmh W 9.2 mph14.8 kmh 29.69 in1005.4 mb 0.00 in0.0 mm 0.00 in0.0 mm 0.59 in15.0 mm
09:20 PM 48.7°F9.3°C 45.6°F7.6°C 89% 6.0 mph W9.7 kmh W 7.6 mph12.2 kmh 29.69 in1005.4 mb 0.00 in0.0 mm 0.00 in0.0 mm 0.59 in15.0 mm
09:25 PM 48.7°F9.3°C 45.6°F7.6°C 89% 6.6 mph W10.6 kmh W 8.3 mph13.4 kmh 29.68 in1005.1 mb 0.00 in0.0 mm 0.00 in0.0 mm 0.59 in15.0 mm
09:30 PM 48.6°F9.2°C 45.2°F7.3°C 88% 6.0 mph W9.7 kmh W 8.3 mph13.4 kmh 29.69 in1005.4 mb 0.00 in0.0 mm 0.00 in0.0 mm 0.59 in15.0 mm
09:35 PM 48.4°F9.1°C 45.0°F7.2°C 88% 5.8 mph W9.3 kmh W 8.3 mph13.4 kmh 29.69 in1005.4 mb 0.00 in0.0 mm 0.00 in0.0 mm 0.59 in15.0 mm
09:40 PM 48.6°F9.2°C 45.2°F7.3°C 88% 5.5 mph W8.9 kmh W 8.3 mph13.4 kmh 29.70 in1005.8 mb 0.00 in0.0 mm 0.00 in0.0 mm 0.59 in15.0 mm
09:45 PM 48.4°F9.1°C 45.0°F7.2°C 88% 4.5 mph W7.2 kmh W 7.6 mph12.2 kmh 29.69 in1005.4 mb 0.00 in0.0 mm 0.00 in0.0 mm 0.59 in15.0 mm
09:50 PM 48.2°F9.0°C 44.8°F7.1°C 88% 5.1 mph W8.2 kmh W 9.2 mph14.8 kmh 29.69 in1005.4 mb 0.00 in0.0 mm 0.00 in0.0 mm 0.59 in15.0 mm
09:55 PM 48.0°F8.9°C 44.6°F7.0°C 88% 6.2 mph WNW10.0 kmh WNW 9.2 mph14.8 kmh 29.69 in1005.4 mb 0.00 in0.0 mm 0.00 in0.0 mm 0.59 in15.0 mm
10:00 PM 48.0°F8.9°C 44.6°F7.0°C 88% 6.2 mph W10.0 kmh W 8.3 mph13.4 kmh 29.68 in1005.1 mb 0.00 in0.0 mm 0.00 in0.0 mm 0.59 in15.0 mm
10:05 PM 47.8°F8.8°C 44.5°F6.9°C 88% 6.2 mph W10.0 kmh W 8.3 mph13.4 kmh 29.69 in1005.4 mb 0.00 in0.0 mm 0.00 in0.0 mm 0.59 in15.0 mm
10:10 PM 47.8°F8.8°C 44.5°F6.9°C 88% 6.6 mph W10.6 kmh W 8.3 mph13.4 kmh 29.69 in1005.4 mb 0.00 in0.0 mm 0.00 in0.0 mm 0.59 in15.0 mm
10:15 PM 47.8°F8.8°C 44.8°F7.1°C 89% 6.0 mph W9.7 kmh W 8.3 mph13.4 kmh 29.70 in1005.8 mb 0.00 in0.0 mm 0.00 in0.0 mm 0.59 in15.0 mm
10:20 PM 47.7°F8.7°C 44.6°F7.0°C 89% 6.4 mph W10.3 kmh W 8.3 mph13.4 kmh 29.69 in1005.4 mb 0.00 in0.0 mm 0.00 in0.0 mm 0.59 in15.0 mm
10:25 PM 47.7°F8.7°C 44.6°F7.0°C 89% 7.1 mph WNW11.4 kmh WNW 8.3 mph13.4 kmh 29.70 in1005.8 mb 0.00 in0.0 mm 0.00 in0.0 mm 0.59 in15.0 mm
10:30 PM 47.5°F8.6°C 44.4°F6.9°C 89% 7.4 mph WNW11.9 kmh WNW 12.1 mph19.5 kmh 29.70 in1005.8 mb 0.00 in0.0 mm 0.00 in0.0 mm 0.59 in15.0 mm
10:35 PM 47.5°F8.6°C 44.4°F6.9°C 89% 7.3 mph WNW11.7 kmh WNW 12.1 mph19.5 kmh 29.69 in1005.4 mb 0.00 in0.0 mm 0.00 in0.0 mm 0.59 in15.0 mm
10:40 PM 47.3°F8.5°C 44.2°F6.8°C 89% 6.7 mph W10.8 kmh W 10.7 mph17.2 kmh 29.69 in1005.4 mb 0.00 in0.0 mm 0.00 in0.0 mm 0.59 in15.0 mm
10:45 PM 47.1°F8.4°C 44.0°F6.7°C 89% 6.3 mph W10.1 kmh W 8.3 mph13.4 kmh 29.69 in1005.4 mb 0.00 in0.0 mm 0.00 in0.0 mm 0.59 in15.0 mm
10:50 PM 47.1°F8.4°C 44.0°F6.7°C 89% 5.6 mph WNW9.0 kmh WNW 8.3 mph13.4 kmh 29.69 in1005.4 mb 0.00 in0.0 mm 0.00 in0.0 mm 0.59 in15.0 mm
10:55 PM 46.9°F8.3°C 43.9°F6.6°C 89% 6.5 mph W10.5 kmh W 9.2 mph14.8 kmh 29.70 in1005.8 mb 0.00 in0.0 mm 0.00 in0.0 mm 0.59 in15.0 mm
11:00 PM 46.9°F8.3°C 43.9°F6.6°C 89% 7.8 mph W12.6 kmh W 9.8 mph15.8 kmh 29.70 in1005.8 mb 0.00 in0.0 mm 0.00 in0.0 mm 0.59 in15.0 mm
11:05 PM 46.9°F8.3°C 44.2°F6.8°C 90% 8.0 mph W12.9 kmh W 9.8 mph15.8 kmh 29.70 in1005.8 mb 0.00 in0.0 mm 0.00 in0.0 mm 0.59 in15.0 mm
11:10 PM 46.9°F8.3°C 43.9°F6.6°C 89% 8.4 mph W13.5 kmh W 10.7 mph17.2 kmh 29.70 in1005.8 mb 0.00 in0.0 mm 0.00 in0.0 mm 0.59 in15.0 mm
11:15 PM 46.9°F8.3°C 43.9°F6.6°C 89% 8.2 mph WNW13.2 kmh WNW 10.7 mph17.2 kmh 29.71 in1006.1 mb 0.00 in0.0 mm 0.00 in0.0 mm 0.59 in15.0 mm
11:20 PM 46.9°F8.3°C 43.9°F6.6°C 89% 6.8 mph WNW10.9 kmh WNW 10.7 mph17.2 kmh 29.70 in1005.8 mb 0.00 in0.0 mm 0.00 in0.0 mm 0.59 in15.0 mm
11:25 PM 46.8°F8.2°C 43.7°F6.5°C 89% 6.6 mph W10.6 kmh W 9.2 mph14.8 kmh 29.70 in1005.8 mb 0.00 in0.0 mm 0.00 in0.0 mm 0.59 in15.0 mm
11:30 PM 46.8°F8.2°C 43.7°F6.5°C 89% 6.1 mph W9.8 kmh W 9.2 mph14.8 kmh 29.71 in1006.1 mb 0.00 in0.0 mm 0.00 in0.0 mm 0.59 in15.0 mm
11:35 PM 46.6°F8.1°C 43.5°F6.4°C 89% 5.6 mph W9.0 kmh W 8.3 mph13.4 kmh 29.70 in1005.8 mb 0.00 in0.0 mm 0.00 in0.0 mm 0.59 in15.0 mm
11:40 PM 46.6°F8.1°C 43.5°F6.4°C 89% 6.7 mph W10.8 kmh W 9.2 mph14.8 kmh 29.70 in1005.8 mb 0.00 in0.0 mm 0.00 in0.0 mm 0.59 in15.0 mm
11:45 PM 46.4°F8.0°C 43.3°F6.3°C 89% 6.7 mph W10.8 kmh W 9.2 mph14.8 kmh 29.70 in1005.8 mb 0.00 in0.0 mm 0.00 in0.0 mm 0.59 in15.0 mm
11:50 PM 46.4°F8.0°C 43.3°F6.3°C 89% 6.7 mph WNW10.8 kmh WNW 9.2 mph14.8 kmh 29.70 in1005.8 mb 0.00 in0.0 mm 0.00 in0.0 mm 0.59 in15.0 mm
11:55 PM 46.2°F7.9°C 43.2°F6.2°C 89% 7.1 mph WNW11.4 kmh WNW 9.2 mph14.8 kmh 29.70 in1005.8 mb 0.00 in0.0 mm 0.00 in0.0 mm 0.59 in15.0 mm